Strona główna
METAR-TAF:

METAR-TAF

Lotnisko :

Port lotniczy Tunis

Tunis, Tunezja

Szerokość geograficzna: 36-50N, Długość geograficzna: 010-14E, wysokość: 3 m

Aktualna obserwacja pogody

Raport powstał 20 minut temu, godzina 07:00 UTC
Wiatr 6 kt od zachód, zmienny między zachodnio-południowy zachód i północny zachód
Temperatura 24°C
Wilgotność 65%
Ciśnienie 1018 hPa
Widzialność 10 km lub więcej
Brak chmur poniżej 1500 m i brak chmur cumulonimbus

METAR: DTTA 200700Z 28006KT 250V320 CAVOK 24/17 Q1018 NOSIG

czas: 08:20 (07:20 UTC)

Prognoza

Raport powstał 1 godzina i 40 minut temu, godzina 05:40 UTC
Prognoza ważna od 20 godzina 06 UTC do 21 godzina 06 UTC
Wiatr 10 kt od zachodnio-północny zachód
Widzialność 10 km lub więcej
Brak chmur poniżej 1500 m i brak chmur cumulonimbus
Prawdopodobieństwo 30% :
Przejściowo
od 20 godzina 14 UTC do 20 godzina 18 UTC
Widzialność: 4000 m
Mało chmury na wysokości 2300 ft, Cumulonimbus.
burza, słaby deszcz

TAF: DTTA 200540Z 2006/2106 29010KT CAVOK PROB30 TEMPO 2014/2018 4000 -TSRA FEW023CB

Obserwacja i prognoza pogody dla ponad 4000 lotnisk (raport METAR i TAF).

Dostępne stacje oznaczono żółtymi i czerwonymi punktami na mapie.

Najedź kursorem aby zobaczyć nazwę stacji.

Kliknij aby zobaczyć obserwacje i prognozy pogody.

Aby zmienić mapę: kliknij na zielony przycisk z czarnym krzyżykiem, aby powiększyć; na zielony przycisk z myślnikiem, aby pomniejszyć; na zielone strzałki, aby przejść do map sąsiednich.


METAR-TAF: